createdAt,value
2018-08-10T00:00:50.506Z,19.17
2018-08-10T00:03:18.312Z,19.83
2018-08-10T00:05:46.154Z,16.30
2018-08-10T00:08:13.974Z,14.93
2018-08-10T00:10:41.818Z,19.17
2018-08-10T00:13:09.646Z,18.30
2018-08-10T00:15:37.459Z,15.57
2018-08-10T00:18:05.352Z,19.30
2018-08-10T00:20:33.185Z,19.00
2018-08-10T00:23:01.023Z,15.53
2018-08-10T00:25:28.894Z,19.10
2018-08-10T00:27:56.741Z,14.97
2018-08-10T00:30:24.579Z,17.80
2018-08-10T00:32:52.419Z,17.00
2018-08-10T00:35:20.234Z,22.10
2018-08-10T00:37:48.744Z,15.77
2018-08-10T00:40:20.272Z,18.30
2018-08-10T00:42:48.133Z,16.70
2018-08-10T00:45:16.664Z,17.10
2018-08-10T00:47:44.836Z,16.17
2018-08-10T00:50:13.729Z,23.33
2018-08-10T00:52:42.260Z,19.40
2018-08-10T00:55:11.459Z,18.77
2018-08-10T00:57:39.376Z,19.30
2018-08-10T01:00:08.944Z,12.40
2018-08-10T01:02:37.079Z,12.70
2018-08-10T01:05:05.066Z,14.60
2018-08-10T01:07:33.186Z,12.47
2018-08-10T01:10:00.996Z,23.40
2018-08-10T01:12:28.843Z,15.37
2018-08-10T01:14:56.663Z,11.20
2018-08-10T01:17:24.606Z,15.37
2018-08-10T01:19:52.443Z,13.47
2018-08-10T01:22:20.267Z,13.03
2018-08-10T01:24:48.101Z,11.30
2018-08-10T01:27:21.601Z,19.00
2018-08-10T01:29:49.409Z,10.00
2018-08-10T01:32:17.237Z,14.83
2018-08-10T01:34:45.062Z,10.03
2018-08-10T01:37:12.906Z,11.27
2018-08-10T01:39:40.758Z,12.73
2018-08-10T01:42:08.589Z,13.73
2018-08-10T01:44:36.423Z,13.50
2018-08-10T01:47:04.397Z,12.53
2018-08-10T01:49:32.221Z,11.60
2018-08-10T01:52:00.053Z,11.67
2018-08-10T01:54:27.910Z,11.47
2018-08-10T01:56:55.749Z,13.03
2018-08-10T01:59:23.580Z,12.10
2018-08-10T02:01:51.413Z,13.27
2018-08-10T02:04:19.240Z,10.33
2018-08-10T02:06:47.075Z,13.90
2018-08-10T02:09:14.933Z,10.47
2018-08-10T02:11:42.774Z,13.40
2018-08-10T02:14:10.610Z,11.20
2018-08-10T02:16:38.506Z,9.83
2018-08-10T02:19:06.325Z,10.80
2018-08-10T02:21:34.168Z,14.50
2018-08-10T02:24:02.017Z,12.37
2018-08-10T02:26:29.867Z,10.43
2018-08-10T02:28:57.700Z,9.23
2018-08-10T02:31:25.534Z,7.47
2018-08-10T02:33:53.441Z,9.00
2018-08-10T02:36:21.255Z,16.90
2018-08-10T02:38:49.084Z,7.77
2018-08-10T02:41:16.906Z,9.43
2018-08-10T02:43:44.728Z,12.00
2018-08-10T02:46:12.554Z,6.80
2018-08-10T02:48:40.400Z,16.70
2018-08-10T02:51:08.244Z,11.83
2018-08-10T02:53:36.081Z,10.87
2018-08-10T02:56:03.909Z,9.63
2018-08-10T02:58:31.746Z,10.53
2018-08-10T03:00:59.591Z,7.93
2018-08-10T03:03:27.446Z,10.40
2018-08-10T03:05:55.298Z,8.30
2018-08-10T03:08:23.138Z,12.83
2018-08-10T03:10:50.953Z,13.40
2018-08-10T03:13:18.786Z,12.30
2018-08-10T03:15:46.637Z,10.70
2018-08-10T03:18:14.485Z,7.83
2018-08-10T03:20:42.301Z,11.20
2018-08-10T03:23:10.144Z,11.40
2018-08-10T03:25:37.977Z,9.20
2018-08-10T03:28:05.804Z,9.87
2018-08-10T03:30:33.662Z,17.37
2018-08-10T03:33:01.507Z,8.30
2018-08-10T03:35:29.329Z,7.63
2018-08-10T03:37:57.177Z,14.27
2018-08-10T03:40:25.005Z,15.53
2018-08-10T03:42:52.857Z,13.10
2018-08-10T03:45:20.677Z,11.50
2018-08-10T03:47:48.506Z,11.60
2018-08-10T03:50:16.325Z,15.57
2018-08-10T03:52:44.181Z,7.00
2018-08-10T03:55:12.154Z,8.90
2018-08-10T03:57:40.366Z,6.53
2018-08-10T04:00:09.277Z,9.60
2018-08-10T04:02:37.270Z,7.70
2018-08-10T04:05:05.227Z,14.97
2018-08-10T04:07:33.070Z,6.27
2018-08-10T04:10:00.917Z,11.80
2018-08-10T04:12:28.753Z,7.20
2018-08-10T04:14:56.596Z,6.30
2018-08-10T04:17:25.436Z,7.90
2018-08-10T04:19:54.359Z,7.77
2018-08-10T04:22:23.073Z,11.43
2018-08-10T04:24:51.110Z,6.80
2018-08-10T04:27:18.959Z,10.00
2018-08-10T04:29:46.941Z,8.83
2018-08-10T04:32:14.791Z,11.57
2018-08-10T04:34:42.834Z,6.07
2018-08-10T04:37:10.697Z,6.73
2018-08-10T04:39:38.520Z,4.80
2018-08-10T04:42:06.372Z,5.37
2018-08-10T04:44:34.213Z,7.27
2018-08-10T04:47:02.028Z,5.33
2018-08-10T04:49:29.860Z,6.50
2018-08-10T04:51:57.689Z,5.33
2018-08-10T04:54:25.524Z,4.60
2018-08-10T04:56:53.365Z,8.47
2018-08-10T04:59:21.199Z,9.90
2018-08-10T05:01:49.030Z,8.87
2018-08-10T05:04:16.867Z,4.73
2018-08-10T05:06:44.689Z,5.50
2018-08-10T05:09:13.313Z,5.10
2018-08-10T05:11:41.505Z,6.83
2018-08-10T05:14:09.545Z,4.90
2018-08-10T05:16:37.368Z,5.07
2018-08-10T05:19:05.212Z,5.97
2018-08-10T05:21:33.025Z,5.57
2018-08-10T05:24:00.872Z,9.30
2018-08-10T05:26:28.697Z,5.43
2018-08-10T05:28:56.536Z,4.80
2018-08-10T05:31:24.367Z,4.20
2018-08-10T05:33:52.210Z,3.97
2018-08-10T05:36:20.880Z,4.80
2018-08-10T05:38:48.707Z,5.07
2018-08-10T05:41:16.549Z,5.03
2018-08-10T05:43:44.385Z,4.17
2018-08-10T05:46:12.239Z,3.37
2018-08-10T05:48:41.324Z,2.93
2018-08-10T05:51:12.624Z,6.07
2018-08-10T05:53:40.905Z,2.90
2018-08-10T05:56:08.758Z,3.17
2018-08-10T05:58:36.585Z,4.17
2018-08-10T06:01:04.774Z,2.63
2018-08-10T06:03:32.626Z,3.73
2018-08-10T06:06:00.436Z,3.20
2018-08-10T06:08:28.284Z,2.67
2018-08-10T06:10:56.129Z,2.47
2018-08-10T06:13:23.957Z,1.90
2018-08-10T06:15:51.818Z,5.03
2018-08-10T06:18:19.642Z,2.20
2018-08-10T06:20:47.495Z,3.10
2018-08-10T06:23:15.333Z,2.53
2018-08-10T06:25:43.170Z,2.40
2018-08-10T06:28:11.063Z,6.40
2018-08-10T06:30:38.880Z,4.23
2018-08-10T06:33:06.705Z,1.10
2018-08-10T06:35:34.542Z,0.83
2018-08-10T06:38:02.386Z,1.87
2018-08-10T06:40:30.221Z,2.23
2018-08-10T06:42:58.053Z,1.90
2018-08-10T06:45:25.897Z,6.57
2018-08-10T06:47:53.751Z,0.70
2018-08-10T06:50:21.611Z,0.70
2018-08-10T06:52:49.418Z,1.27
2018-08-10T06:55:17.272Z,0.80
2018-08-10T06:57:45.125Z,0.60
2018-08-10T07:00:12.965Z,2.50
2018-08-10T07:02:40.806Z,5.57
2018-08-10T07:05:09.141Z,3.03
2018-08-10T07:07:37.262Z,1.30
2018-08-10T07:10:05.389Z,0.70
2018-08-10T07:12:33.213Z,2.23
2018-08-10T07:15:01.048Z,1.33
2018-08-10T07:17:28.897Z,8.87
2018-08-10T07:19:56.745Z,2.90
2018-08-10T07:22:24.568Z,5.23
2018-08-10T07:24:52.435Z,3.10
2018-08-10T07:27:20.257Z,0.60
2018-08-10T07:29:48.102Z,0.70
2018-08-10T07:32:15.909Z,0.80
2018-08-10T07:34:43.755Z,0.67
2018-08-10T07:37:11.569Z,1.23
2018-08-10T07:39:39.402Z,1.27
2018-08-10T07:42:07.239Z,2.90
2018-08-10T07:44:35.085Z,2.53
2018-08-10T07:47:02.941Z,2.07
2018-08-10T07:49:30.768Z,0.80
2018-08-10T07:51:58.606Z,1.43
2018-08-10T07:54:26.452Z,0.70
2018-08-10T07:56:54.272Z,0.83
2018-08-10T07:59:22.192Z,4.80
2018-08-10T08:01:50.085Z,1.07
2018-08-10T08:04:17.901Z,2.70
2018-08-10T08:06:45.729Z,1.73
2018-08-10T08:09:13.936Z,0.70
2018-08-10T08:11:42.213Z,0.70
2018-08-10T08:14:10.241Z,1.00
2018-08-10T08:16:38.253Z,0.70
2018-08-10T08:19:06.113Z,4.83
2018-08-10T08:21:33.953Z,2.00
2018-08-10T08:24:02.550Z,6.57
2018-08-10T08:26:30.469Z,0.70
2018-08-10T08:28:58.403Z,0.77
2018-08-10T08:31:26.333Z,0.80
2018-08-10T08:34:00.658Z,1.40
2018-08-10T08:36:29.074Z,5.27
2018-08-10T08:41:04.764Z,1.67
2018-08-10T08:45:49.766Z,0.70
2018-08-10T08:48:17.649Z,0.60
2018-08-10T08:50:46.980Z,1.03
2018-08-10T08:53:14.835Z,1.23
2018-08-10T08:55:46.469Z,1.73
2018-08-10T08:58:14.285Z,1.37
2018-08-10T09:00:42.126Z,1.20
2018-08-10T09:03:15.545Z,1.73
2018-08-10T09:05:43.471Z,0.70
2018-08-10T09:08:11.290Z,1.13
2018-08-10T09:10:39.120Z,2.30
2018-08-10T09:13:06.956Z,5.07
2018-08-10T09:15:34.781Z,1.33
2018-08-10T09:18:02.629Z,0.80
2018-08-10T09:20:30.498Z,0.60
2018-08-10T09:22:58.329Z,4.53
2018-08-10T09:25:26.160Z,1.67
2018-08-10T09:27:54.092Z,2.30
2018-08-10T09:30:21.925Z,0.80
2018-08-10T09:32:49.734Z,0.83
2018-08-10T09:35:17.570Z,3.30
2018-08-10T09:37:45.388Z,2.90
2018-08-10T09:40:15.880Z,3.13
2018-08-10T09:42:43.798Z,0.80
2018-08-10T09:45:12.383Z,2.70
2018-08-10T09:47:40.560Z,0.60
2018-08-10T09:50:09.222Z,3.53
2018-08-10T09:52:37.101Z,2.70
2018-08-10T09:55:26.199Z,0.93
2018-08-10T09:57:59.673Z,2.20
2018-08-10T10:00:33.044Z,1.73
2018-08-10T10:03:06.300Z,2.87
2018-08-10T10:05:34.127Z,0.50
2018-08-10T10:08:02.023Z,4.30
2018-08-10T10:10:29.862Z,7.40
2018-08-10T10:12:58.002Z,3.20
2018-08-10T10:15:25.847Z,3.50
2018-08-10T10:17:53.869Z,1.17
2018-08-10T10:20:21.726Z,0.50
2018-08-10T10:22:49.992Z,3.60
2018-08-10T10:25:18.180Z,1.67
2018-08-10T10:27:46.281Z,1.43
2018-08-10T10:30:14.144Z,2.67
2018-08-10T10:32:42.100Z,0.70
2018-08-10T10:35:09.861Z,0.80
2018-08-10T10:37:37.725Z,0.70
2018-08-10T10:40:06.107Z,1.87
2018-08-10T10:42:33.969Z,2.80
2018-08-10T10:45:01.866Z,0.50
2018-08-10T10:47:29.818Z,1.90
2018-08-10T10:49:57.652Z,1.10
2018-08-10T10:52:25.490Z,6.90
2018-08-10T10:54:53.344Z,3.13
2018-08-10T10:57:21.185Z,3.53
2018-08-10T10:59:49.017Z,2.17
2018-08-10T11:02:16.841Z,3.90
2018-08-10T11:04:44.661Z,4.40
2018-08-10T11:07:12.509Z,0.60
2018-08-10T11:09:40.373Z,1.63
2018-08-10T11:12:08.206Z,5.30
2018-08-10T11:14:36.028Z,1.00
2018-08-10T11:17:03.882Z,0.80
2018-08-10T11:19:31.716Z,1.47
2018-08-10T11:21:59.541Z,2.03
2018-08-10T11:24:27.513Z,3.73
2018-08-10T11:26:55.369Z,1.57
2018-08-10T11:29:23.220Z,2.40
2018-08-10T11:31:51.123Z,5.20
2018-08-10T11:34:18.985Z,1.23
2018-08-10T11:36:46.809Z,1.43
2018-08-10T11:39:14.637Z,1.70
2018-08-10T11:41:42.497Z,3.27
2018-08-10T11:44:10.585Z,3.20
2018-08-10T11:46:38.449Z,0.50
2018-08-10T11:49:06.349Z,0.77
2018-08-10T11:51:34.220Z,2.87
2018-08-10T11:54:02.034Z,1.60
2018-08-10T11:56:29.876Z,2.70
2018-08-10T11:58:57.733Z,0.50
2018-08-10T12:01:25.604Z,2.10
2018-08-10T12:03:53.480Z,1.00
2018-08-10T12:06:21.376Z,1.07
2018-08-10T12:08:49.158Z,0.57
2018-08-10T12:11:16.973Z,2.00
2018-08-10T12:13:44.876Z,0.60
2018-08-10T12:16:12.718Z,0.57
2018-08-10T12:18:40.541Z,0.80
2018-08-10T12:21:08.371Z,1.57
2018-08-10T12:23:36.290Z,1.73
2018-08-10T12:26:04.166Z,0.53
2018-08-10T12:28:32.080Z,0.70
2018-08-10T12:31:00.074Z,1.87
2018-08-10T12:33:27.898Z,5.27
2018-08-10T12:35:55.729Z,1.33
2018-08-10T12:38:23.560Z,0.60
2018-08-10T12:40:51.400Z,0.93
2018-08-10T12:43:19.233Z,2.50
2018-08-10T12:45:47.060Z,0.70
2018-08-10T12:48:14.927Z,1.07
2018-08-10T12:50:42.868Z,1.03
2018-08-10T12:53:10.889Z,2.20
2018-08-10T12:55:38.737Z,4.97
2018-08-10T12:58:06.752Z,2.00
2018-08-10T13:00:34.613Z,1.03
2018-08-10T13:03:02.520Z,2.40
2018-08-10T13:05:30.256Z,1.20
2018-08-10T13:07:58.248Z,1.93
2018-08-10T13:10:26.091Z,1.40
2018-08-10T13:12:53.925Z,1.80
2018-08-10T13:15:21.779Z,2.60
2018-08-10T13:17:49.637Z,3.03
2018-08-10T13:20:17.457Z,4.37
2018-08-10T13:22:45.268Z,2.43
2018-08-10T13:25:13.096Z,10.23
2018-08-10T13:27:40.993Z,1.73
2018-08-10T13:30:09.792Z,1.17
2018-08-10T13:33:05.210Z,2.30
2018-08-10T13:35:33.262Z,1.60
2018-08-10T13:38:01.058Z,1.10
2018-08-10T13:40:28.897Z,1.43
2018-08-10T13:42:56.814Z,1.00
2018-08-10T13:45:24.673Z,0.60
2018-08-10T13:47:52.491Z,1.57
2018-08-10T13:50:20.315Z,1.40
2018-08-10T13:52:48.201Z,1.23
2018-08-10T13:55:17.513Z,1.00
2018-08-10T13:57:46.183Z,3.73
2018-08-10T14:00:22.283Z,1.23
2018-08-10T14:02:51.056Z,2.87
2018-08-10T14:05:18.945Z,4.33
2018-08-10T14:07:46.789Z,2.53
2018-08-10T14:10:15.280Z,1.33
2018-08-10T14:12:43.224Z,2.37
2018-08-10T14:15:11.568Z,1.57
2018-08-10T14:17:39.404Z,2.30
2018-08-10T14:20:07.725Z,0.80
2018-08-10T14:22:35.536Z,0.87
2018-08-10T14:25:03.504Z,1.10
2018-08-10T14:27:31.340Z,3.83
2018-08-10T14:29:59.213Z,2.23
2018-08-10T14:32:27.034Z,3.13
2018-08-10T14:34:54.847Z,2.40
2018-08-10T14:37:23.292Z,1.80
2018-08-10T14:39:51.102Z,1.50
2018-08-10T14:42:18.944Z,1.57
2018-08-10T14:44:46.893Z,1.77
2018-08-10T14:47:14.791Z,4.40
2018-08-10T14:49:42.579Z,2.60
2018-08-10T14:52:10.389Z,2.03
2018-08-10T14:54:38.234Z,3.13
2018-08-10T14:57:06.169Z,1.40
2018-08-10T14:59:33.982Z,1.73
2018-08-10T15:02:01.873Z,1.00
2018-08-10T15:04:29.721Z,2.63
2018-08-10T15:06:57.550Z,1.67
2018-08-10T15:09:25.392Z,0.90
2018-08-10T15:11:53.419Z,2.10
2018-08-10T15:14:21.208Z,2.10
2018-08-10T15:16:49.032Z,2.20
2018-08-10T15:19:16.857Z,2.20
2018-08-10T15:21:44.704Z,2.00
2018-08-10T15:24:12.559Z,3.30
2018-08-10T15:26:40.385Z,2.20
2018-08-10T15:29:08.239Z,2.33
2018-08-10T15:31:36.112Z,5.03
2018-08-10T15:34:03.937Z,0.93
2018-08-10T15:36:31.765Z,0.93
2018-08-10T15:38:59.609Z,2.00
2018-08-10T15:41:27.449Z,1.67
2018-08-10T15:43:55.286Z,2.63
2018-08-10T15:46:23.114Z,6.47
2018-08-10T15:48:50.924Z,4.43
2018-08-10T15:51:18.764Z,0.60
2018-08-10T15:53:46.602Z,0.87
2018-08-10T15:56:14.468Z,3.63
2018-08-10T15:58:42.282Z,2.83
2018-08-10T16:01:10.134Z,0.70
2018-08-10T16:03:37.953Z,1.33
2018-08-10T16:06:05.821Z,0.80
2018-08-10T16:08:33.675Z,1.40
2018-08-10T16:11:01.545Z,1.13
2018-08-10T16:13:29.382Z,1.83
2018-08-10T16:15:57.225Z,0.97
2018-08-10T16:18:25.059Z,1.77
2018-08-10T16:20:52.916Z,1.30
2018-08-10T16:23:20.730Z,1.30
2018-08-10T16:25:48.593Z,1.00
2018-08-10T16:28:16.501Z,5.10
2018-08-10T16:30:44.274Z,0.70
2018-08-10T16:33:12.130Z,1.20
2018-08-10T16:35:39.948Z,4.87
2018-08-10T16:38:07.784Z,6.23
2018-08-10T16:40:36.817Z,1.30
2018-08-10T16:43:04.642Z,1.90
2018-08-10T16:45:32.529Z,1.00
2018-08-10T16:48:00.416Z,2.03
2018-08-10T16:50:28.259Z,0.73
2018-08-10T16:52:56.088Z,3.33
2018-08-10T16:55:23.969Z,0.93
2018-08-10T16:57:51.800Z,3.10
2018-08-10T17:00:20.215Z,2.30
2018-08-10T17:02:48.639Z,0.53
2018-08-10T17:05:16.714Z,2.90
2018-08-10T17:07:44.652Z,1.83
2018-08-10T17:10:12.702Z,1.63
2018-08-10T17:12:41.818Z,1.60
2018-08-10T17:15:12.579Z,1.77
2018-08-10T17:17:40.985Z,1.70
2018-08-10T17:20:09.177Z,1.20
2018-08-10T17:22:37.037Z,1.53
2018-08-10T17:25:05.389Z,3.93
2018-08-10T17:27:33.224Z,0.60
2018-08-10T17:30:01.085Z,1.53
2018-08-10T17:32:28.919Z,1.10
2018-08-10T17:34:56.741Z,1.57
2018-08-10T17:37:24.568Z,1.87
2018-08-10T17:39:52.373Z,2.83
2018-08-10T17:42:20.209Z,1.10
2018-08-10T17:44:48.041Z,1.00
2018-08-10T17:47:15.959Z,1.33
2018-08-10T17:49:43.824Z,4.77
2018-08-10T17:52:11.681Z,1.77
2018-08-10T17:54:39.525Z,2.40
2018-08-10T17:57:07.361Z,2.13
2018-08-10T17:59:35.185Z,1.10
2018-08-10T18:02:03.007Z,2.67
2018-08-10T18:04:30.844Z,2.87
2018-08-10T18:06:58.673Z,1.67
2018-08-10T18:09:26.525Z,2.70
2018-08-10T18:11:54.336Z,1.03
2018-08-10T18:14:22.198Z,2.67
2018-08-10T18:16:50.029Z,1.00
2018-08-10T18:19:17.875Z,0.60
2018-08-10T18:21:45.720Z,1.83
2018-08-10T18:24:13.550Z,1.80
2018-08-10T18:26:41.376Z,1.93
2018-08-10T18:29:09.229Z,1.20
2018-08-10T18:31:37.423Z,1.50
2018-08-10T18:34:05.277Z,1.80
2018-08-10T18:36:33.093Z,2.17
2018-08-10T18:39:00.924Z,1.43
2018-08-10T18:41:28.742Z,2.60
2018-08-10T18:43:56.592Z,0.80
2018-08-10T18:46:24.413Z,0.70
2018-08-10T18:48:52.236Z,0.70
2018-08-10T18:51:20.117Z,1.10
2018-08-10T18:53:47.974Z,1.67
2018-08-10T18:56:15.800Z,0.90
2018-08-10T18:58:43.898Z,1.33
2018-08-10T19:01:11.721Z,1.30
2018-08-10T19:03:39.978Z,0.87
2018-08-10T19:06:07.810Z,0.93
2018-08-10T19:08:35.810Z,1.20
2018-08-10T19:11:03.629Z,1.03
2018-08-10T19:13:31.509Z,0.80
2018-08-10T19:15:59.350Z,1.80
2018-08-10T19:18:27.183Z,2.50
2018-08-10T19:20:55.017Z,1.60
2018-08-10T19:23:22.848Z,1.20
2018-08-10T19:25:50.664Z,1.40
2018-08-10T19:28:18.521Z,2.50
2018-08-10T19:30:46.366Z,5.80
2018-08-10T19:33:14.477Z,2.70
2018-08-10T19:35:42.306Z,3.50
2018-08-10T19:38:10.141Z,3.60
2018-08-10T19:40:37.973Z,1.03
2018-08-10T19:43:05.795Z,6.83
2018-08-10T19:45:33.624Z,2.80
2018-08-10T19:48:01.478Z,2.70
2018-08-10T19:50:29.297Z,1.00
2018-08-10T19:52:57.118Z,4.77
2018-08-10T19:55:24.949Z,1.27
2018-08-10T19:57:52.764Z,0.90
2018-08-10T20:00:20.613Z,0.70
2018-08-10T20:02:49.721Z,3.10
2018-08-10T20:05:20.234Z,4.40
2018-08-10T20:07:48.391Z,1.40
2018-08-10T20:10:16.383Z,1.63
2018-08-10T20:12:44.228Z,3.97
2018-08-10T20:15:12.895Z,1.60
2018-08-10T20:17:41.065Z,1.53
2018-08-10T20:20:09.457Z,3.83
2018-08-10T20:22:37.325Z,1.90
2018-08-10T20:25:05.764Z,1.07
2018-08-10T20:27:33.912Z,0.87
2018-08-10T20:30:01.934Z,1.00
2018-08-10T20:32:29.933Z,2.13
2018-08-10T20:34:57.957Z,1.33
2018-08-10T20:37:25.966Z,1.20
2018-08-10T20:39:54.033Z,1.53
2018-08-10T20:42:22.037Z,3.73
2018-08-10T20:44:50.054Z,0.87
2018-08-10T20:47:18.077Z,1.07
2018-08-10T20:49:46.086Z,0.97
2018-08-10T20:52:14.085Z,1.13
2018-08-10T20:54:42.085Z,2.90
2018-08-10T20:57:10.132Z,1.90
2018-08-10T20:59:38.125Z,2.20
2018-08-10T21:02:06.374Z,1.67
2018-08-10T21:04:34.377Z,1.67
2018-08-10T21:07:02.433Z,1.37
2018-08-10T21:09:30.446Z,1.90
2018-08-10T21:11:58.430Z,1.20
2018-08-10T21:14:26.447Z,1.20
2018-08-10T21:16:54.457Z,2.00
2018-08-10T21:19:22.470Z,2.10
2018-08-10T21:21:50.469Z,2.20
2018-08-10T21:24:18.503Z,1.30
2018-08-10T21:26:46.538Z,1.30
2018-08-10T21:29:14.548Z,1.40
2018-08-10T21:31:42.553Z,2.30
2018-08-10T21:34:10.552Z,2.87
2018-08-10T21:36:38.926Z,3.53
2018-08-10T21:39:08.201Z,2.90
2018-08-10T21:41:36.196Z,2.00
2018-08-10T21:44:04.205Z,5.50
2018-08-10T21:46:32.245Z,2.60
2018-08-10T21:49:00.245Z,1.60
2018-08-10T21:51:28.261Z,2.47
2018-08-10T21:53:56.342Z,2.80
2018-08-10T21:56:24.333Z,3.13
2018-08-10T21:58:52.362Z,2.20
2018-08-10T22:01:20.390Z,2.47
2018-08-10T22:03:48.395Z,4.13
2018-08-10T22:06:16.381Z,2.00
2018-08-10T22:08:44.369Z,1.80
2018-08-10T22:11:12.369Z,4.57
2018-08-10T22:13:45.859Z,5.30
2018-08-10T22:16:19.229Z,1.77
2018-08-10T22:18:52.687Z,2.67
2018-08-10T22:21:20.695Z,3.17
2018-08-10T22:23:48.678Z,4.50
2018-08-10T22:26:16.721Z,2.50
2018-08-10T22:28:44.702Z,2.10
2018-08-10T22:31:12.720Z,2.10
2018-08-10T22:33:40.732Z,2.10
2018-08-10T22:36:08.747Z,3.93
2018-08-10T22:38:36.745Z,1.97
2018-08-10T22:41:04.744Z,1.93
2018-08-10T22:43:32.737Z,1.60
2018-08-10T22:46:00.743Z,2.30
2018-08-10T22:48:28.743Z,1.70
2018-08-10T22:50:56.767Z,1.93
2018-08-10T22:53:24.792Z,1.77
2018-08-10T22:55:52.796Z,2.80
2018-08-10T22:58:20.789Z,2.10
2018-08-10T23:00:48.766Z,2.93
2018-08-10T23:03:16.805Z,4.13
2018-08-10T23:05:44.833Z,1.80
2018-08-10T23:08:12.861Z,1.50
2018-08-10T23:10:40.853Z,2.30
2018-08-10T23:13:08.863Z,3.20
2018-08-10T23:15:36.878Z,1.80
2018-08-10T23:18:05.044Z,3.47
2018-08-10T23:20:33.107Z,1.73
2018-08-10T23:23:03.081Z,2.23
2018-08-10T23:25:31.121Z,1.97
2018-08-10T23:27:59.140Z,3.13
2018-08-10T23:30:27.209Z,1.80
2018-08-10T23:32:55.153Z,3.33
2018-08-10T23:35:23.153Z,2.10
2018-08-10T23:37:51.168Z,3.00
2018-08-10T23:40:19.174Z,1.90
2018-08-10T23:42:47.201Z,2.60
2018-08-10T23:45:15.605Z,2.13
2018-08-10T23:47:44.245Z,3.17
2018-08-10T23:50:14.887Z,1.93
2018-08-10T23:52:43.293Z,5.03
2018-08-10T23:55:11.625Z,3.10
2018-08-10T23:57:40.605Z,6.73
